createdAt,value
2024-03-28T00:01:28.600Z,53.76
2024-03-28T00:03:59.779Z,53.17
2024-03-28T00:06:30.955Z,53.02
2024-03-28T00:09:03.849Z,53.38
2024-03-28T00:11:35.264Z,53.60
2024-03-28T00:14:07.596Z,53.45
2024-03-28T00:16:38.822Z,53.53
2024-03-28T00:19:11.309Z,53.96
2024-03-28T00:21:42.858Z,54.25
2024-03-28T00:24:14.015Z,54.48
2024-03-28T00:26:46.671Z,54.81
2024-03-28T00:29:18.030Z,54.47
2024-03-28T00:31:50.685Z,54.68
2024-03-28T00:34:21.872Z,54.57
2024-03-28T00:36:52.964Z,55.10
2024-03-28T00:39:24.133Z,55.26
2024-03-28T00:41:55.330Z,55.50
2024-03-28T00:44:26.532Z,55.42
2024-03-28T00:46:57.618Z,55.25
2024-03-28T00:49:28.742Z,54.97
2024-03-28T00:51:59.815Z,55.06
2024-03-28T00:54:30.928Z,54.71
2024-03-28T00:57:01.991Z,55.03
2024-03-28T00:59:32.921Z,55.37
2024-03-28T01:02:04.111Z,55.43
2024-03-28T01:04:35.062Z,55.85
2024-03-28T01:07:06.473Z,56.02
2024-03-28T01:09:41.119Z,56.32
2024-03-28T01:12:13.937Z,56.64
2024-03-28T01:14:45.335Z,56.62
2024-03-28T01:17:16.759Z,56.12
2024-03-28T01:19:49.071Z,56.87
2024-03-28T01:22:20.522Z,57.18
2024-03-28T01:24:53.383Z,57.56
2024-03-28T01:27:24.638Z,57.19
2024-03-28T01:29:57.171Z,57.28
2024-03-28T01:32:28.062Z,56.53
2024-03-28T01:34:59.157Z,56.67
2024-03-28T01:37:30.134Z,56.52
2024-03-28T01:40:02.138Z,57.02
2024-03-28T01:42:33.390Z,57.12
2024-03-28T01:45:05.456Z,57.62
2024-03-28T01:50:13.871Z,56.92
2024-03-28T01:52:45.027Z,57.24
2024-03-28T01:55:16.360Z,56.76
2024-03-28T01:57:48.823Z,57.28
2024-03-28T02:00:22.072Z,57.49
2024-03-28T02:02:53.236Z,57.41
2024-03-28T02:05:24.830Z,57.78
2024-03-28T02:07:56.026Z,57.30
2024-03-28T02:10:28.272Z,57.26
2024-03-28T02:12:59.191Z,57.30
2024-03-28T02:15:30.273Z,57.30
2024-03-28T02:18:01.155Z,57.20
2024-03-28T02:20:32.174Z,57.12
2024-03-28T02:23:03.258Z,57.20
2024-03-28T02:25:34.464Z,57.25
2024-03-28T02:28:05.613Z,57.31
2024-03-28T02:30:36.625Z,57.00
2024-03-28T02:33:08.228Z,57.11
2024-03-28T02:35:39.475Z,57.33
2024-03-28T02:38:10.387Z,56.90
2024-03-28T02:40:41.562Z,57.06
2024-03-28T02:43:12.638Z,57.25
2024-03-28T02:45:43.970Z,57.20
2024-03-28T02:48:15.171Z,56.63
2024-03-28T02:50:46.271Z,56.61
2024-03-28T02:53:17.552Z,56.60
2024-03-28T02:55:53.875Z,56.36
2024-03-28T02:58:25.412Z,57.06
2024-03-28T03:00:57.739Z,57.62
2024-03-28T03:03:28.735Z,57.47
2024-03-28T03:06:00.149Z,57.44
2024-03-28T03:08:31.115Z,57.14
2024-03-28T03:11:02.073Z,57.04
2024-03-28T03:13:33.125Z,57.12
2024-03-28T03:16:05.128Z,57.09
2024-03-28T03:18:36.251Z,57.30
2024-03-28T03:21:10.104Z,56.97
2024-03-28T03:23:49.517Z,57.02
2024-03-28T03:26:24.118Z,56.94
2024-03-28T03:29:23.992Z,56.94
2024-03-28T03:32:12.765Z,57.05
2024-03-28T03:34:44.847Z,57.38
2024-03-28T03:37:18.354Z,57.70
2024-03-28T03:39:54.573Z,57.69
2024-03-28T03:42:25.935Z,57.96
2024-03-28T03:44:57.142Z,58.35
2024-03-28T03:47:28.230Z,58.67
2024-03-28T03:49:59.258Z,58.79
2024-03-28T03:52:30.385Z,59.06
2024-03-28T03:55:01.398Z,59.04
2024-03-28T03:57:32.663Z,58.48
2024-03-28T04:00:05.240Z,58.57
2024-03-28T04:02:36.228Z,58.66
2024-03-28T04:05:08.243Z,58.27
2024-03-28T04:07:39.182Z,58.90
2024-03-28T04:10:11.541Z,58.94
2024-03-28T04:12:42.643Z,58.95
2024-03-28T04:15:13.773Z,58.86
2024-03-28T04:17:45.340Z,58.83
2024-03-28T04:20:16.679Z,59.13
2024-03-28T04:22:47.746Z,58.98
2024-03-28T04:25:20.620Z,58.55
2024-03-28T04:27:51.820Z,58.83
2024-03-28T04:30:30.581Z,58.67
2024-03-28T04:33:01.845Z,58.80
2024-03-28T04:35:33.002Z,59.25
2024-03-28T04:38:04.037Z,59.48
2024-03-28T04:40:35.699Z,59.41
2024-03-28T04:43:07.037Z,59.23
2024-03-28T04:45:38.189Z,59.58
2024-03-28T04:48:10.241Z,60.02
2024-03-28T04:50:43.836Z,61.38
2024-03-28T04:53:15.155Z,61.79
2024-03-28T04:55:46.428Z,61.94
2024-03-28T04:58:17.461Z,62.40
2024-03-28T05:00:48.377Z,63.40
2024-03-28T05:03:19.233Z,63.31
2024-03-28T05:05:51.471Z,63.33
2024-03-28T05:08:23.034Z,62.69
2024-03-28T05:10:54.274Z,62.54
2024-03-28T05:13:25.432Z,62.50
2024-03-28T05:15:56.465Z,62.17
2024-03-28T05:18:27.496Z,61.83
2024-03-28T05:20:58.634Z,61.79
2024-03-28T05:23:29.570Z,61.61
2024-03-28T05:26:00.721Z,61.01
2024-03-28T05:28:32.208Z,61.03
2024-03-28T05:31:03.832Z,61.20
2024-03-28T05:33:35.050Z,61.18
2024-03-28T05:36:07.170Z,60.50
2024-03-28T05:38:38.187Z,60.32
2024-03-28T05:41:09.312Z,60.44
2024-03-28T05:43:40.618Z,59.95
2024-03-28T05:46:12.024Z,59.49
2024-03-28T05:48:43.045Z,59.61
2024-03-28T05:51:16.962Z,59.46
2024-03-28T05:53:50.001Z,59.42
2024-03-28T05:56:21.187Z,59.66
2024-03-28T05:58:52.383Z,60.26
2024-03-28T06:01:23.519Z,60.49
2024-03-28T06:03:55.547Z,60.52
2024-03-28T06:06:27.042Z,60.12
2024-03-28T06:08:58.419Z,59.91
2024-03-28T06:11:29.677Z,59.80
2024-03-28T06:14:11.629Z,59.95
2024-03-28T06:16:42.963Z,60.03
2024-03-28T06:19:14.557Z,59.69
2024-03-28T06:21:49.075Z,59.69
2024-03-28T06:24:20.117Z,59.60
2024-03-28T06:26:54.064Z,59.23
2024-03-28T06:29:25.950Z,58.82
2024-03-28T06:31:57.197Z,58.41
2024-03-28T06:34:28.524Z,57.90
2024-03-28T06:36:59.769Z,57.20
2024-03-28T06:39:31.808Z,56.53
2024-03-28T06:42:04.192Z,56.31
2024-03-28T06:44:35.438Z,56.36
2024-03-28T06:47:06.910Z,56.75
2024-03-28T06:49:38.121Z,57.07
2024-03-28T06:52:11.202Z,57.38
2024-03-28T06:54:43.010Z,57.24
2024-03-28T06:57:14.372Z,57.78
2024-03-28T06:59:45.621Z,58.36
2024-03-28T07:02:17.049Z,58.84
2024-03-28T07:04:48.768Z,59.14
2024-03-28T07:07:20.443Z,59.90
2024-03-28T07:09:52.668Z,60.20
2024-03-28T07:12:26.356Z,60.09
2024-03-28T07:14:58.965Z,59.95
2024-03-28T07:17:32.121Z,59.96
2024-03-28T07:20:04.606Z,59.59
2024-03-28T07:22:37.211Z,59.58
2024-03-28T07:25:10.080Z,59.66
2024-03-28T07:27:41.396Z,59.76
2024-03-28T07:30:14.922Z,59.32
2024-03-28T07:32:49.872Z,59.05
2024-03-28T07:35:21.359Z,59.06
2024-03-28T07:37:52.903Z,59.33
2024-03-28T07:40:24.368Z,59.38
2024-03-28T07:42:55.622Z,59.58
2024-03-28T07:45:27.017Z,59.72
2024-03-28T07:47:58.482Z,59.58
2024-03-28T07:50:29.853Z,59.51
2024-03-28T07:53:01.175Z,59.51
2024-03-28T07:55:32.505Z,59.27
2024-03-28T07:58:03.915Z,59.49
2024-03-28T08:00:35.867Z,59.02
2024-03-28T08:03:07.686Z,58.84
2024-03-28T08:05:39.243Z,58.83
2024-03-28T08:08:11.567Z,58.93
2024-03-28T08:10:42.983Z,58.69
2024-03-28T08:13:14.552Z,58.64
2024-03-28T08:15:45.913Z,58.34
2024-03-28T08:18:21.487Z,58.15
2024-03-28T08:20:53.228Z,58.12
2024-03-28T08:23:24.934Z,58.27
2024-03-28T08:25:58.062Z,58.79
2024-03-28T08:28:30.692Z,59.03
2024-03-28T08:31:07.667Z,59.16
2024-03-28T08:33:40.148Z,59.68
2024-03-28T08:36:15.975Z,61.32
2024-03-28T08:38:47.885Z,62.26
2024-03-28T08:41:19.068Z,62.82
2024-03-28T08:43:51.640Z,63.06
2024-03-28T08:46:23.133Z,63.37
2024-03-28T08:48:55.676Z,63.64
2024-03-28T08:51:26.887Z,64.27
2024-03-28T08:54:27.175Z,64.80
2024-03-28T08:56:59.558Z,64.78
2024-03-28T08:59:30.832Z,64.91
2024-03-28T09:02:02.121Z,64.81
2024-03-28T09:04:33.506Z,65.01
2024-03-28T09:07:05.003Z,64.75
2024-03-28T09:09:37.309Z,64.38
2024-03-28T09:12:09.719Z,63.76
2024-03-28T09:14:41.199Z,63.44
2024-03-28T09:17:13.077Z,63.42
2024-03-28T09:19:44.222Z,63.18
2024-03-28T09:22:15.991Z,62.68
2024-03-28T09:24:48.160Z,62.66
2024-03-28T09:27:20.207Z,62.46
2024-03-28T09:29:53.470Z,61.69
2024-03-28T09:32:25.129Z,61.22
2024-03-28T09:34:57.837Z,60.62
2024-03-28T09:37:29.626Z,60.35
2024-03-28T09:40:04.439Z,60.67
2024-03-28T09:42:39.189Z,60.55
2024-03-28T09:45:14.458Z,59.87
2024-03-28T09:47:46.320Z,59.56
2024-03-28T09:50:25.359Z,59.57
2024-03-28T09:52:59.786Z,59.63
2024-03-28T09:55:31.173Z,59.35
2024-03-28T09:58:04.864Z,58.94
2024-03-28T10:00:37.768Z,59.28
2024-03-28T10:03:20.353Z,59.33
2024-03-28T10:05:53.101Z,58.97
2024-03-28T10:08:25.843Z,58.66
2024-03-28T10:10:57.951Z,58.65
2024-03-28T10:13:37.210Z,58.54
2024-03-28T10:16:15.660Z,57.84
2024-03-28T10:18:48.751Z,57.25
2024-03-28T10:21:23.691Z,57.68
2024-03-28T10:23:54.770Z,57.83
2024-03-28T10:26:30.359Z,57.29
2024-03-28T10:29:02.418Z,56.96
2024-03-28T10:31:34.024Z,56.94
2024-03-28T10:34:06.595Z,56.91
2024-03-28T10:36:39.435Z,56.63
2024-03-28T10:39:13.178Z,56.79
2024-03-28T10:41:48.440Z,56.49
2024-03-28T10:44:20.603Z,56.33
2024-03-28T10:46:54.612Z,56.00
2024-03-28T10:49:34.499Z,56.11
2024-03-28T10:52:16.006Z,56.05
2024-03-28T10:54:49.870Z,55.53
2024-03-28T10:57:24.263Z,55.43
2024-03-28T10:59:58.137Z,55.46
2024-03-28T11:02:32.133Z,55.37
2024-03-28T11:05:04.527Z,54.96
2024-03-28T11:07:37.351Z,54.58
2024-03-28T11:10:11.132Z,54.37
2024-03-28T11:12:42.668Z,53.94
2024-03-28T11:15:23.077Z,54.14
2024-03-28T11:17:54.673Z,54.31
2024-03-28T11:20:26.789Z,54.17
2024-03-28T11:23:06.767Z,54.31
2024-03-28T11:25:40.538Z,54.35
2024-03-28T11:28:12.953Z,54.33
2024-03-28T11:30:58.385Z,54.02
2024-03-28T11:33:38.144Z,53.86
2024-03-28T11:36:10.689Z,54.10
2024-03-28T11:38:43.014Z,53.96
2024-03-28T11:41:14.218Z,54.30
2024-03-28T11:43:47.633Z,54.24
2024-03-28T11:46:20.582Z,54.17
2024-03-28T11:48:58.784Z,54.13
2024-03-28T11:51:29.865Z,54.14
2024-03-28T11:54:04.830Z,53.98
2024-03-28T11:56:36.929Z,54.27
2024-03-28T11:59:20.191Z,53.81
2024-03-28T12:02:04.611Z,54.02
2024-03-28T12:04:37.300Z,53.91
2024-03-28T12:07:09.233Z,54.09
2024-03-28T12:09:42.011Z,54.04
2024-03-28T12:12:14.202Z,54.25
2024-03-28T12:14:45.274Z,54.70
2024-03-28T12:17:18.196Z,54.48
2024-03-28T12:19:49.867Z,54.68
2024-03-28T12:22:21.791Z,55.00
2024-03-28T12:24:53.568Z,55.11
2024-03-28T12:27:25.544Z,55.02
2024-03-28T12:30:06.191Z,54.97
2024-03-28T12:32:37.537Z,54.76
2024-03-28T12:35:10.451Z,54.57
2024-03-28T12:37:43.164Z,54.40
2024-03-28T12:40:19.717Z,54.66
2024-03-28T12:42:51.451Z,55.00
2024-03-28T12:45:24.753Z,55.32
2024-03-28T12:47:56.399Z,55.16
2024-03-28T12:50:27.910Z,54.97
2024-03-28T12:52:59.749Z,54.75
2024-03-28T12:55:30.959Z,54.46
2024-03-28T12:58:03.239Z,54.01
2024-03-28T13:00:34.336Z,54.05
2024-03-28T13:03:06.386Z,54.23
2024-03-28T13:05:38.089Z,54.67
2024-03-28T13:08:10.487Z,54.93
2024-03-28T13:10:41.571Z,55.13
2024-03-28T13:13:13.820Z,54.72
2024-03-28T13:15:46.382Z,54.48
2024-03-28T13:18:18.440Z,54.22
2024-03-28T13:20:51.014Z,54.08
2024-03-28T13:23:22.782Z,53.44
2024-03-28T13:26:05.701Z,52.74
2024-03-28T13:28:43.543Z,52.54
2024-03-28T13:31:16.111Z,51.66
2024-03-28T13:33:47.458Z,51.29
2024-03-28T13:36:18.574Z,51.38
2024-03-28T13:38:49.723Z,51.80
2024-03-28T13:41:20.934Z,52.02
2024-03-28T13:43:53.885Z,52.09
2024-03-28T13:46:25.703Z,51.76
2024-03-28T13:48:57.151Z,51.90
2024-03-28T13:51:28.939Z,52.43
2024-03-28T13:54:01.751Z,52.62
2024-03-28T13:56:35.221Z,53.23
2024-03-28T13:59:06.857Z,53.34
2024-03-28T14:01:40.377Z,53.48
2024-03-28T14:04:11.783Z,53.94
2024-03-28T14:06:45.113Z,54.08
2024-03-28T14:09:16.737Z,54.81
2024-03-28T14:11:48.658Z,54.68
2024-03-28T14:14:20.167Z,54.72
2024-03-28T14:16:52.464Z,54.94
2024-03-28T14:19:23.715Z,55.32
2024-03-28T14:21:55.454Z,55.07
2024-03-28T14:24:26.834Z,55.11
2024-03-28T14:26:59.249Z,55.68
2024-03-28T14:29:30.425Z,55.86
2024-03-28T14:32:02.933Z,55.57
2024-03-28T14:34:35.554Z,55.29
2024-03-28T14:37:10.058Z,55.44
2024-03-28T14:39:42.205Z,55.36
2024-03-28T14:42:13.162Z,55.12
2024-03-28T14:44:47.017Z,54.79
2024-03-28T14:47:18.963Z,54.99
2024-03-28T14:49:53.675Z,54.98
2024-03-28T14:52:24.979Z,55.21
2024-03-28T14:54:56.966Z,55.40
2024-03-28T14:57:29.420Z,55.81
2024-03-28T15:00:01.285Z,56.20
2024-03-28T15:02:32.489Z,56.28
2024-03-28T15:05:04.762Z,55.97
2024-03-28T15:07:36.535Z,56.03
2024-03-28T15:10:08.824Z,55.91
2024-03-28T15:12:40.345Z,55.89
2024-03-28T15:15:12.946Z,55.90
2024-03-28T15:17:43.982Z,55.98
2024-03-28T15:20:32.394Z,56.20
2024-03-28T15:23:04.019Z,56.43
2024-03-28T15:25:36.393Z,56.85
2024-03-28T15:28:09.302Z,56.71
2024-03-28T15:30:42.493Z,56.41
2024-03-28T15:33:13.853Z,56.20
2024-03-28T15:35:46.462Z,56.43
2024-03-28T15:38:18.326Z,56.60
2024-03-28T15:40:56.124Z,56.35
2024-03-28T15:43:27.426Z,56.53
2024-03-28T15:45:58.934Z,56.22
2024-03-28T15:48:31.430Z,56.26
2024-03-28T15:51:03.341Z,56.86
2024-03-28T15:53:36.273Z,56.65
2024-03-28T15:56:09.310Z,56.57
2024-03-28T15:58:41.535Z,56.79
2024-03-28T16:01:17.256Z,56.65
2024-03-28T16:03:48.753Z,56.61
2024-03-28T16:06:22.544Z,56.52
2024-03-28T16:08:53.781Z,56.72
2024-03-28T16:11:29.645Z,56.60
2024-03-28T16:14:00.744Z,56.98
2024-03-28T16:16:32.181Z,57.19
2024-03-28T16:19:03.375Z,56.97
2024-03-28T16:21:34.689Z,56.98
2024-03-28T16:24:07.236Z,56.78
2024-03-28T16:26:38.612Z,56.30
2024-03-28T16:29:11.169Z,56.14
2024-03-28T16:31:43.615Z,56.00
2024-03-28T16:34:14.850Z,56.02
2024-03-28T16:36:46.229Z,56.16
2024-03-28T16:39:17.366Z,56.28
2024-03-28T16:41:49.091Z,56.46
2024-03-28T16:44:20.677Z,56.66
2024-03-28T16:46:51.821Z,57.09
2024-03-28T16:49:23.161Z,57.08
2024-03-28T16:51:56.118Z,57.10
2024-03-28T16:54:27.615Z,57.23
2024-03-28T16:56:58.967Z,57.52
2024-03-28T16:59:30.093Z,57.97
2024-03-28T17:02:01.216Z,57.90
2024-03-28T17:04:32.436Z,57.71
2024-03-28T17:07:03.738Z,57.93
2024-03-28T17:09:35.050Z,57.96
2024-03-28T17:12:08.358Z,58.47
2024-03-28T17:14:40.448Z,58.60
2024-03-28T17:17:11.552Z,58.79
2024-03-28T17:19:42.749Z,59.13
2024-03-28T17:22:14.018Z,59.16
2024-03-28T17:24:45.871Z,58.93
2024-03-28T17:27:19.577Z,58.57
2024-03-28T17:29:50.954Z,58.51
2024-03-28T17:32:22.290Z,58.83
2024-03-28T17:34:56.093Z,58.96
2024-03-28T17:37:28.886Z,58.86
2024-03-28T17:40:00.313Z,58.89
2024-03-28T17:42:37.160Z,58.84
2024-03-28T17:45:12.593Z,58.87
2024-03-28T17:47:46.399Z,59.12
2024-03-28T17:50:19.361Z,59.04
2024-03-28T17:52:56.253Z,59.08
2024-03-28T17:55:32.100Z,58.92
2024-03-28T17:58:05.692Z,59.12
2024-03-28T18:00:37.480Z,58.66
2024-03-28T18:03:09.209Z,58.44
2024-03-28T18:05:43.505Z,58.33
2024-03-28T18:08:15.032Z,58.04
2024-03-28T18:10:53.075Z,58.13
2024-03-28T18:13:25.366Z,58.43
2024-03-28T18:15:56.661Z,58.27
2024-03-28T18:18:28.196Z,57.98
2024-03-28T18:21:04.758Z,58.01
2024-03-28T18:23:39.636Z,58.27
2024-03-28T18:26:10.996Z,58.42
2024-03-28T18:28:42.556Z,58.32
2024-03-28T18:31:14.143Z,58.57
2024-03-28T18:33:45.261Z,59.01
2024-03-28T18:36:16.476Z,59.25
2024-03-28T18:38:47.485Z,59.43
2024-03-28T18:41:19.939Z,59.45
2024-03-28T18:43:51.583Z,60.16
2024-03-28T18:46:22.720Z,59.96
2024-03-28T18:48:53.982Z,59.74
2024-03-28T18:51:25.061Z,60.47
2024-03-28T18:53:56.134Z,60.71
2024-03-28T18:56:28.735Z,61.02
2024-03-28T18:59:00.037Z,60.58
2024-03-28T19:01:31.730Z,61.00
2024-03-28T19:04:02.753Z,61.46
2024-03-28T19:06:33.664Z,61.81
2024-03-28T19:09:04.647Z,62.06
2024-03-28T19:11:35.721Z,62.58
2024-03-28T19:14:09.249Z,63.03
2024-03-28T19:16:40.396Z,63.05
2024-03-28T19:19:11.668Z,63.14
2024-03-28T19:21:42.922Z,62.75
2024-03-28T19:24:14.449Z,62.88
2024-03-28T19:26:46.228Z,62.92
2024-03-28T19:29:19.200Z,62.70
2024-03-28T19:31:51.588Z,63.20
2024-03-28T19:34:25.026Z,63.41
2024-03-28T19:36:58.140Z,63.34
2024-03-28T19:39:31.623Z,63.65
2024-03-28T19:42:04.972Z,63.41
2024-03-28T19:44:37.764Z,63.21
2024-03-28T19:47:11.610Z,63.34
2024-03-28T19:49:44.202Z,63.47
2024-03-28T19:52:16.652Z,63.48
2024-03-28T19:54:48.716Z,64.28
2024-03-28T19:57:20.972Z,64.60
2024-03-28T20:00:01.245Z,65.00
2024-03-28T20:02:34.430Z,65.45
2024-03-28T20:05:08.213Z,65.47
2024-03-28T20:07:50.161Z,65.35
2024-03-28T20:10:24.549Z,65.74
2024-03-28T20:12:58.058Z,66.15
2024-03-28T20:15:32.319Z,66.00
2024-03-28T20:18:04.488Z,66.12
2024-03-28T20:20:38.763Z,66.19
2024-03-28T20:23:12.939Z,66.41
2024-03-28T20:25:45.629Z,66.11
2024-03-28T20:28:20.220Z,65.46
2024-03-28T20:30:55.402Z,65.89
2024-03-28T20:33:27.430Z,66.16
2024-03-28T20:36:01.104Z,66.00
2024-03-28T20:38:32.402Z,65.96
2024-03-28T20:41:04.701Z,65.92
2024-03-28T20:43:35.875Z,65.94
2024-03-28T20:46:13.357Z,66.18
2024-03-28T20:48:45.415Z,66.57
2024-03-28T20:51:19.688Z,66.41
2024-03-28T20:53:53.389Z,66.69
2024-03-28T20:56:25.253Z,66.44
2024-03-28T20:58:57.249Z,66.25
2024-03-28T21:01:29.808Z,66.25
2024-03-28T21:04:01.428Z,65.71
2024-03-28T21:06:50.184Z,65.51
2024-03-28T21:09:40.971Z,65.09
2024-03-28T21:12:15.208Z,65.53
2024-03-28T21:14:47.429Z,65.67
2024-03-28T21:17:19.094Z,65.68
2024-03-28T21:19:51.944Z,66.12
2024-03-28T21:22:23.153Z,66.01
2024-03-28T21:24:54.215Z,66.13
2024-03-28T21:27:25.976Z,66.39
2024-03-28T21:29:57.546Z,66.68
2024-03-28T21:32:29.453Z,66.88
2024-03-28T21:35:06.365Z,66.87
2024-03-28T21:37:39.246Z,66.69
2024-03-28T21:40:12.468Z,66.16
2024-03-28T21:42:45.938Z,65.69
2024-03-28T21:45:19.850Z,65.87
2024-03-28T21:47:55.282Z,66.06
2024-03-28T21:50:28.741Z,65.85
2024-03-28T21:53:00.577Z,65.53
2024-03-28T21:55:32.551Z,65.67
2024-03-28T21:58:04.655Z,65.50
2024-03-28T22:00:37.860Z,65.39
2024-03-28T22:03:09.472Z,65.12
2024-03-28T22:05:42.346Z,64.52
2024-03-28T22:08:13.772Z,64.04
2024-03-28T22:10:45.069Z,63.74
2024-03-28T22:13:16.292Z,63.78
2024-03-28T22:15:56.810Z,64.05
2024-03-28T22:18:29.027Z,63.91
2024-03-28T22:21:00.594Z,64.24
2024-03-28T22:23:32.359Z,64.36
2024-03-28T22:26:03.786Z,64.27
2024-03-28T22:28:35.116Z,64.20
2024-03-28T22:31:07.117Z,64.68
2024-03-28T22:33:38.387Z,64.55
2024-03-28T22:36:11.451Z,64.41
2024-03-28T22:38:43.384Z,64.12
2024-03-28T22:41:16.158Z,63.50
2024-03-28T22:43:47.476Z,63.02
2024-03-28T22:46:19.160Z,62.67
2024-03-28T22:48:52.127Z,62.80
2024-03-28T22:51:23.496Z,62.14
2024-03-28T22:53:56.245Z,61.93
2024-03-28T22:56:29.418Z,61.81
2024-03-28T22:59:01.256Z,62.02
2024-03-28T23:01:33.921Z,61.86
2024-03-28T23:04:06.665Z,61.27
2024-03-28T23:06:38.518Z,61.26
2024-03-28T23:09:10.677Z,60.95
2024-03-28T23:11:42.011Z,60.66
2024-03-28T23:14:13.619Z,59.67
2024-03-28T23:16:44.674Z,59.83
2024-03-28T23:19:16.178Z,59.83
2024-03-28T23:21:48.160Z,59.21
2024-03-28T23:24:19.467Z,58.65
2024-03-28T23:26:51.299Z,58.74
2024-03-28T23:29:23.383Z,59.01
2024-03-28T23:31:54.716Z,59.35
2024-03-28T23:34:26.222Z,59.11
2024-03-28T23:36:59.047Z,58.99
2024-03-28T23:39:31.376Z,59.25
2024-03-28T23:42:02.576Z,59.38
2024-03-28T23:44:34.069Z,59.23
2024-03-28T23:47:05.297Z,58.69
2024-03-28T23:49:36.580Z,58.91
2024-03-28T23:52:08.976Z,58.40
2024-03-28T23:54:40.516Z,57.91
2024-03-28T23:57:11.691Z,57.73
2024-03-28T23:59:42.839Z,57.24
